sensor_id;sensor_type;location;lat;lon;timestamp;P1;durP1;ratioP1;P2;durP2;ratioP2
24901;SDS011;31328;51.402;0.016;2023-03-14T00:00:15;15.73;;;3.93;;
24901;SDS011;31328;51.402;0.016;2023-03-14T00:02:42;20.37;;;3.83;;
24901;SDS011;31328;51.402;0.016;2023-03-14T00:05:08;20.83;;;4.83;;
24901;SDS011;31328;51.402;0.016;2023-03-14T00:07:35;17.43;;;4.10;;
24901;SDS011;31328;51.402;0.016;2023-03-14T00:10:09;17.73;;;4.80;;
24901;SDS011;31328;51.402;0.016;2023-03-14T00:12:38;18.33;;;4.43;;
24901;SDS011;31328;51.402;0.016;2023-03-14T00:15:06;16.33;;;4.77;;
24901;SDS011;31328;51.402;0.016;2023-03-14T00:17:33;16.20;;;4.27;;
24901;SDS011;31328;51.402;0.016;2023-03-14T00:20:05;15.37;;;3.17;;
24901;SDS011;31328;51.402;0.016;2023-03-14T00:22:37;21.80;;;4.47;;
24901;SDS011;31328;51.402;0.016;2023-03-14T00:25:05;19.53;;;3.83;;
24901;SDS011;31328;51.402;0.016;2023-03-14T00:27:33;18.83;;;5.17;;
24901;SDS011;31328;51.402;0.016;2023-03-14T00:29:59;21.83;;;4.60;;
24901;SDS011;31328;51.402;0.016;2023-03-14T00:32:26;25.23;;;4.93;;
24901;SDS011;31328;51.402;0.016;2023-03-14T00:34:53;17.07;;;4.00;;
24901;SDS011;31328;51.402;0.016;2023-03-14T00:37:19;19.93;;;4.70;;
24901;SDS011;31328;51.402;0.016;2023-03-14T00:39:46;11.77;;;3.00;;
24901;SDS011;31328;51.402;0.016;2023-03-14T00:42:12;14.20;;;3.20;;
24901;SDS011;31328;51.402;0.016;2023-03-14T00:44:39;8.80;;;2.03;;
24901;SDS011;31328;51.402;0.016;2023-03-14T00:47:06;8.83;;;2.63;;
24901;SDS011;31328;51.402;0.016;2023-03-14T00:49:33;7.83;;;2.03;;
24901;SDS011;31328;51.402;0.016;2023-03-14T00:51:59;11.33;;;2.70;;
24901;SDS011;31328;51.402;0.016;2023-03-14T00:54:25;7.67;;;2.83;;
24901;SDS011;31328;51.402;0.016;2023-03-14T00:56:52;14.70;;;2.70;;
24901;SDS011;31328;51.402;0.016;2023-03-14T00:59:18;8.57;;;1.90;;
24901;SDS011;31328;51.402;0.016;2023-03-14T01:01:45;9.50;;;1.70;;
24901;SDS011;31328;51.402;0.016;2023-03-14T01:04:12;6.87;;;3.00;;
24901;SDS011;31328;51.402;0.016;2023-03-14T01:06:38;8.70;;;2.30;;
24901;SDS011;31328;51.402;0.016;2023-03-14T01:09:05;9.07;;;1.70;;
24901;SDS011;31328;51.402;0.016;2023-03-14T01:11:33;9.93;;;2.60;;
24901;SDS011;31328;51.402;0.016;2023-03-14T01:14:02;6.40;;;2.23;;
24901;SDS011;31328;51.402;0.016;2023-03-14T01:16:29;5.23;;;1.90;;
24901;SDS011;31328;51.402;0.016;2023-03-14T01:19:00;7.17;;;2.97;;
24901;SDS011;31328;51.402;0.016;2023-03-14T01:21:28;6.23;;;1.83;;
24901;SDS011;31328;51.402;0.016;2023-03-14T01:23:57;7.43;;;1.50;;
24901;SDS011;31328;51.402;0.016;2023-03-14T01:26:26;8.00;;;1.90;;
24901;SDS011;31328;51.402;0.016;2023-03-14T01:28:55;7.03;;;2.73;;
24901;SDS011;31328;51.402;0.016;2023-03-14T01:31:22;5.40;;;1.03;;
24901;SDS011;31328;51.402;0.016;2023-03-14T01:33:50;3.63;;;0.90;;
24901;SDS011;31328;51.402;0.016;2023-03-14T01:36:17;2.50;;;0.93;;
24901;SDS011;31328;51.402;0.016;2023-03-14T01:38:43;2.27;;;0.53;;
24901;SDS011;31328;51.402;0.016;2023-03-14T01:41:20;1.90;;;0.70;;
24901;SDS011;31328;51.402;0.016;2023-03-14T01:43:48;1.53;;;0.40;;
24901;SDS011;31328;51.402;0.016;2023-03-14T01:46:29;1.10;;;0.50;;
24901;SDS011;31328;51.402;0.016;2023-03-14T01:54:33;2.30;;;0.33;;
24901;SDS011;31328;51.402;0.016;2023-03-14T01:57:08;1.30;;;0.50;;
24901;SDS011;31328;51.402;0.016;2023-03-14T01:59:51;0.60;;;0.60;;
24901;SDS011;31328;51.402;0.016;2023-03-14T02:02:21;1.50;;;0.33;;
24901;SDS011;31328;51.402;0.016;2023-03-14T02:04:50;1.73;;;0.83;;
24901;SDS011;31328;51.402;0.016;2023-03-14T02:07:25;1.00;;;0.50;;
24901;SDS011;31328;51.402;0.016;2023-03-14T02:10:13;1.00;;;0.40;;
24901;SDS011;31328;51.402;0.016;2023-03-14T02:12:41;1.30;;;0.47;;
24901;SDS011;31328;51.402;0.016;2023-03-14T02:15:18;0.47;;;0.47;;
24901;SDS011;31328;51.402;0.016;2023-03-14T02:18:10;1.13;;;0.53;;
24901;SDS011;31328;51.402;0.016;2023-03-14T02:28:57;1.13;;;0.50;;
24901;SDS011;31328;51.402;0.016;2023-03-14T02:31:24;3.23;;;0.70;;
24901;SDS011;31328;51.402;0.016;2023-03-14T02:33:51;3.00;;;0.60;;
24901;SDS011;31328;51.402;0.016;2023-03-14T02:36:17;2.50;;;1.27;;
24901;SDS011;31328;51.402;0.016;2023-03-14T02:38:47;3.10;;;0.80;;
24901;SDS011;31328;51.402;0.016;2023-03-14T02:41:23;1.63;;;0.60;;
24901;SDS011;31328;51.402;0.016;2023-03-14T02:43:59;2.77;;;0.60;;
24901;SDS011;31328;51.402;0.016;2023-03-14T02:46:26;5.10;;;0.90;;
24901;SDS011;31328;51.402;0.016;2023-03-14T02:51:21;1.50;;;0.60;;
24901;SDS011;31328;51.402;0.016;2023-03-14T02:53:50;1.63;;;0.53;;
24901;SDS011;31328;51.402;0.016;2023-03-14T02:56:16;2.03;;;0.70;;
24901;SDS011;31328;51.402;0.016;2023-03-14T02:58:43;1.30;;;0.40;;
24901;SDS011;31328;51.402;0.016;2023-03-14T03:01:27;0.67;;;0.40;;
24901;SDS011;31328;51.402;0.016;2023-03-14T03:03:53;2.67;;;0.63;;
24901;SDS011;31328;51.402;0.016;2023-03-14T03:06:19;1.67;;;0.67;;
24901;SDS011;31328;51.402;0.016;2023-03-14T03:08:46;1.97;;;0.47;;
24901;SDS011;31328;51.402;0.016;2023-03-14T03:11:12;1.97;;;0.50;;
24901;SDS011;31328;51.402;0.016;2023-03-14T03:13:39;2.20;;;0.30;;
24901;SDS011;31328;51.402;0.016;2023-03-14T03:16:06;2.30;;;0.50;;
24901;SDS011;31328;51.402;0.016;2023-03-14T03:18:34;2.27;;;0.70;;
24901;SDS011;31328;51.402;0.016;2023-03-14T03:21:01;2.53;;;1.33;;
24901;SDS011;31328;51.402;0.016;2023-03-14T03:23:29;1.50;;;0.40;;
24901;SDS011;31328;51.402;0.016;2023-03-14T03:25:57;2.13;;;0.73;;
24901;SDS011;31328;51.402;0.016;2023-03-14T03:28:23;4.60;;;0.60;;
24901;SDS011;31328;51.402;0.016;2023-03-14T03:30:51;2.30;;;0.33;;
24901;SDS011;31328;51.402;0.016;2023-03-14T03:33:17;0.67;;;0.37;;
24901;SDS011;31328;51.402;0.016;2023-03-14T03:35:45;2.50;;;0.53;;
24901;SDS011;31328;51.402;0.016;2023-03-14T03:38:15;3.00;;;0.53;;
24901;SDS011;31328;51.402;0.016;2023-03-14T03:40:43;0.97;;;0.30;;
24901;SDS011;31328;51.402;0.016;2023-03-14T03:43:11;1.27;;;0.47;;
24901;SDS011;31328;51.402;0.016;2023-03-14T03:45:39;1.97;;;0.50;;
24901;SDS011;31328;51.402;0.016;2023-03-14T03:48:06;3.70;;;0.30;;
24901;SDS011;31328;51.402;0.016;2023-03-14T03:50:32;1.90;;;0.80;;
24901;SDS011;31328;51.402;0.016;2023-03-14T03:52:59;4.13;;;0.50;;
24901;SDS011;31328;51.402;0.016;2023-03-14T03:55:25;1.50;;;0.30;;
24901;SDS011;31328;51.402;0.016;2023-03-14T03:57:53;1.60;;;0.40;;
24901;SDS011;31328;51.402;0.016;2023-03-14T04:00:20;1.33;;;0.57;;
24901;SDS011;31328;51.402;0.016;2023-03-14T04:02:47;2.07;;;0.50;;
24901;SDS011;31328;51.402;0.016;2023-03-14T04:05:16;1.03;;;0.43;;
24901;SDS011;31328;51.402;0.016;2023-03-14T04:07:58;2.23;;;0.47;;
24901;SDS011;31328;51.402;0.016;2023-03-14T04:10:26;1.33;;;0.60;;
24901;SDS011;31328;51.402;0.016;2023-03-14T04:13:19;1.73;;;0.30;;
24901;SDS011;31328;51.402;0.016;2023-03-14T04:15:50;3.00;;;0.57;;
24901;SDS011;31328;51.402;0.016;2023-03-14T04:18:27;1.73;;;0.30;;
24901;SDS011;31328;51.402;0.016;2023-03-14T04:20:56;0.83;;;0.60;;
24901;SDS011;31328;51.402;0.016;2023-03-14T04:23:28;3.27;;;0.57;;
24901;SDS011;31328;51.402;0.016;2023-03-14T04:25:55;1.87;;;0.50;;
24901;SDS011;31328;51.402;0.016;2023-03-14T04:28:23;4.17;;;0.50;;
24901;SDS011;31328;51.402;0.016;2023-03-14T04:30:50;1.50;;;0.40;;
24901;SDS011;31328;51.402;0.016;2023-03-14T04:33:21;1.90;;;0.40;;
24901;SDS011;31328;51.402;0.016;2023-03-14T04:35:53;2.37;;;0.40;;
24901;SDS011;31328;51.402;0.016;2023-03-14T04:38:21;1.93;;;0.60;;
24901;SDS011;31328;51.402;0.016;2023-03-14T04:40:48;3.47;;;0.60;;
24901;SDS011;31328;51.402;0.016;2023-03-14T04:43:16;2.07;;;0.60;;
24901;SDS011;31328;51.402;0.016;2023-03-14T04:45:58;2.47;;;0.83;;
24901;SDS011;31328;51.402;0.016;2023-03-14T04:48:25;2.90;;;0.80;;
24901;SDS011;31328;51.402;0.016;2023-03-14T04:50:52;4.13;;;0.60;;
24901;SDS011;31328;51.402;0.016;2023-03-14T04:53:19;4.73;;;1.03;;
24901;SDS011;31328;51.402;0.016;2023-03-14T04:55:48;4.20;;;0.60;;
24901;SDS011;31328;51.402;0.016;2023-03-14T04:58:19;3.40;;;0.63;;
24901;SDS011;31328;51.402;0.016;2023-03-14T05:00:47;5.83;;;0.93;;
24901;SDS011;31328;51.402;0.016;2023-03-14T05:03:40;3.67;;;0.90;;
24901;SDS011;31328;51.402;0.016;2023-03-14T05:06:15;2.80;;;0.83;;
24901;SDS011;31328;51.402;0.016;2023-03-14T05:09:00;3.42;;;0.60;;
24901;SDS011;31328;51.402;0.016;2023-03-14T05:14:29;4.57;;;1.40;;
24901;SDS011;31328;51.402;0.016;2023-03-14T05:17:14;3.63;;;1.00;;
24901;SDS011;31328;51.402;0.016;2023-03-14T05:20:03;3.97;;;1.10;;
24901;SDS011;31328;51.402;0.016;2023-03-14T05:23:10;4.37;;;1.13;;
24901;SDS011;31328;51.402;0.016;2023-03-14T05:25:55;4.18;;;1.27;;
24901;SDS011;31328;51.402;0.016;2023-03-14T05:28:36;6.80;;;0.80;;
24901;SDS011;31328;51.402;0.016;2023-03-14T05:31:22;2.57;;;0.70;;
24901;SDS011;31328;51.402;0.016;2023-03-14T05:34:12;5.93;;;1.13;;
24901;SDS011;31328;51.402;0.016;2023-03-14T05:37:04;5.23;;;1.57;;
24901;SDS011;31328;51.402;0.016;2023-03-14T05:39:39;6.70;;;1.40;;
24901;SDS011;31328;51.402;0.016;2023-03-14T05:42:26;2.47;;;1.00;;
24901;SDS011;31328;51.402;0.016;2023-03-14T05:45:07;2.73;;;0.60;;
24901;SDS011;31328;51.402;0.016;2023-03-14T05:48:11;5.80;;;1.15;;
24901;SDS011;31328;51.402;0.016;2023-03-14T05:51:04;3.80;;;0.90;;
24901;SDS011;31328;51.402;0.016;2023-03-14T05:54:03;3.47;;;0.63;;
24901;SDS011;31328;51.402;0.016;2023-03-14T05:56:48;7.63;;;1.00;;
24901;SDS011;31328;51.402;0.016;2023-03-14T05:59:20;2.13;;;0.50;;
24901;SDS011;31328;51.402;0.016;2023-03-14T06:02:06;4.40;;;1.13;;
24901;SDS011;31328;51.402;0.016;2023-03-14T06:04:52;2.30;;;1.20;;
24901;SDS011;31328;51.402;0.016;2023-03-14T06:07:18;3.43;;;0.80;;
24901;SDS011;31328;51.402;0.016;2023-03-14T06:09:45;4.43;;;0.80;;
24901;SDS011;31328;51.402;0.016;2023-03-14T06:12:11;4.83;;;1.27;;
24901;SDS011;31328;51.402;0.016;2023-03-14T06:14:42;5.03;;;1.20;;
24901;SDS011;31328;51.402;0.016;2023-03-14T06:17:08;5.50;;;1.20;;
24901;SDS011;31328;51.402;0.016;2023-03-14T06:19:42;7.25;;;2.20;;
24901;SDS011;31328;51.402;0.016;2023-03-14T06:22:11;4.93;;;2.30;;
24901;SDS011;31328;51.402;0.016;2023-03-14T06:24:38;2.17;;;0.70;;
24901;SDS011;31328;51.402;0.016;2023-03-14T06:27:04;6.93;;;1.00;;
24901;SDS011;31328;51.402;0.016;2023-03-14T06:29:31;1.77;;;1.53;;
24901;SDS011;31328;51.402;0.016;2023-03-14T06:31:57;4.63;;;0.70;;
24901;SDS011;31328;51.402;0.016;2023-03-14T06:34:25;4.17;;;0.83;;
24901;SDS011;31328;51.402;0.016;2023-03-14T06:36:53;8.07;;;1.67;;
24901;SDS011;31328;51.402;0.016;2023-03-14T06:39:19;5.80;;;1.03;;
24901;SDS011;31328;51.402;0.016;2023-03-14T06:41:50;5.00;;;0.93;;
24901;SDS011;31328;51.402;0.016;2023-03-14T06:44:18;4.53;;;0.77;;
24901;SDS011;31328;51.402;0.016;2023-03-14T06:46:44;4.60;;;0.90;;
24901;SDS011;31328;51.402;0.016;2023-03-14T06:49:11;5.87;;;2.13;;
24901;SDS011;31328;51.402;0.016;2023-03-14T06:51:37;3.83;;;1.37;;
24901;SDS011;31328;51.402;0.016;2023-03-14T06:54:05;3.57;;;0.70;;
24901;SDS011;31328;51.402;0.016;2023-03-14T06:56:32;4.97;;;1.00;;
24901;SDS011;31328;51.402;0.016;2023-03-14T06:58:58;7.40;;;0.80;;
24901;SDS011;31328;51.402;0.016;2023-03-14T07:01:29;1.60;;;0.60;;
24901;SDS011;31328;51.402;0.016;2023-03-14T07:04:04;7.87;;;1.20;;
24901;SDS011;31328;51.402;0.016;2023-03-14T07:06:31;5.00;;;0.83;;
24901;SDS011;31328;51.402;0.016;2023-03-14T07:08:58;12.37;;;1.50;;
24901;SDS011;31328;51.402;0.016;2023-03-14T07:11:25;4.37;;;0.87;;
24901;SDS011;31328;51.402;0.016;2023-03-14T07:13:52;5.97;;;0.93;;
24901;SDS011;31328;51.402;0.016;2023-03-14T07:16:20;7.10;;;0.83;;
24901;SDS011;31328;51.402;0.016;2023-03-14T07:18:46;10.13;;;1.30;;
24901;SDS011;31328;51.402;0.016;2023-03-14T07:21:14;5.27;;;0.70;;
24901;SDS011;31328;51.402;0.016;2023-03-14T07:23:40;2.97;;;0.50;;
24901;SDS011;31328;51.402;0.016;2023-03-14T07:26:08;3.17;;;1.20;;
24901;SDS011;31328;51.402;0.016;2023-03-14T07:28:36;5.07;;;0.90;;
24901;SDS011;31328;51.402;0.016;2023-03-14T07:31:10;4.85;;;1.90;;
24901;SDS011;31328;51.402;0.016;2023-03-14T07:33:38;5.50;;;0.80;;
24901;SDS011;31328;51.402;0.016;2023-03-14T07:36:04;6.00;;;0.70;;
24901;SDS011;31328;51.402;0.016;2023-03-14T07:38:31;3.27;;;0.90;;
24901;SDS011;31328;51.402;0.016;2023-03-14T07:41:17;5.37;;;0.67;;
24901;SDS011;31328;51.402;0.016;2023-03-14T07:44:06;4.03;;;0.77;;
24901;SDS011;31328;51.402;0.016;2023-03-14T07:46:33;3.83;;;0.80;;
24901;SDS011;31328;51.402;0.016;2023-03-14T07:48:59;2.10;;;0.60;;
24901;SDS011;31328;51.402;0.016;2023-03-14T07:51:25;3.27;;;0.70;;
24901;SDS011;31328;51.402;0.016;2023-03-14T07:53:51;6.80;;;0.80;;
24901;SDS011;31328;51.402;0.016;2023-03-14T07:56:18;2.83;;;1.10;;
24901;SDS011;31328;51.402;0.016;2023-03-14T07:58:44;5.97;;;0.77;;
24901;SDS011;31328;51.402;0.016;2023-03-14T08:01:10;3.50;;;0.70;;
24901;SDS011;31328;51.402;0.016;2023-03-14T08:03:37;3.17;;;0.80;;
24901;SDS011;31328;51.402;0.016;2023-03-14T08:06:03;1.90;;;0.83;;
24901;SDS011;31328;51.402;0.016;2023-03-14T08:08:29;7.80;;;0.83;;
24901;SDS011;31328;51.402;0.016;2023-03-14T08:10:56;3.30;;;1.10;;
24901;SDS011;31328;51.402;0.016;2023-03-14T08:13:28;4.30;;;0.80;;
24901;SDS011;31328;51.402;0.016;2023-03-14T08:15:55;1.87;;;0.57;;
24901;SDS011;31328;51.402;0.016;2023-03-14T08:18:21;1.03;;;0.60;;
24901;SDS011;31328;51.402;0.016;2023-03-14T08:20:47;1.70;;;0.77;;
24901;SDS011;31328;51.402;0.016;2023-03-14T08:23:13;6.13;;;0.67;;
24901;SDS011;31328;51.402;0.016;2023-03-14T08:25:40;2.10;;;0.57;;
24901;SDS011;31328;51.402;0.016;2023-03-14T08:28:06;2.27;;;0.80;;
24901;SDS011;31328;51.402;0.016;2023-03-14T08:30:32;2.13;;;0.80;;
24901;SDS011;31328;51.402;0.016;2023-03-14T08:32:58;6.97;;;1.30;;
24901;SDS011;31328;51.402;0.016;2023-03-14T08:35:31;3.13;;;0.40;;
24901;SDS011;31328;51.402;0.016;2023-03-14T08:38:01;0.70;;;0.40;;
24901;SDS011;31328;51.402;0.016;2023-03-14T08:40:27;1.43;;;0.50;;
24901;SDS011;31328;51.402;0.016;2023-03-14T08:42:53;2.03;;;0.83;;
24901;SDS011;31328;51.402;0.016;2023-03-14T08:45:20;0.83;;;0.40;;
24901;SDS011;31328;51.402;0.016;2023-03-14T08:47:47;1.47;;;0.40;;
24901;SDS011;31328;51.402;0.016;2023-03-14T08:50:13;1.93;;;0.47;;
24901;SDS011;31328;51.402;0.016;2023-03-14T08:52:39;1.70;;;0.43;;
24901;SDS011;31328;51.402;0.016;2023-03-14T08:55:07;1.00;;;0.93;;
24901;SDS011;31328;51.402;0.016;2023-03-14T08:57:34;1.83;;;0.60;;
24901;SDS011;31328;51.402;0.016;2023-03-14T09:00:02;1.30;;;0.83;;
24901;SDS011;31328;51.402;0.016;2023-03-14T09:02:36;0.63;;;0.30;;
24901;SDS011;31328;51.402;0.016;2023-03-14T09:05:02;4.80;;;1.53;;
24901;SDS011;31328;51.402;0.016;2023-03-14T09:07:29;0.50;;;0.17;;
24901;SDS011;31328;51.402;0.016;2023-03-14T09:09:56;0.10;;;0.10;;
24901;SDS011;31328;51.402;0.016;2023-03-14T09:12:22;0.30;;;0.10;;
24901;SDS011;31328;51.402;0.016;2023-03-14T09:14:48;0.30;;;0.10;;
24901;SDS011;31328;51.402;0.016;2023-03-14T09:17:16;0.30;;;0.20;;
24901;SDS011;31328;51.402;0.016;2023-03-14T09:19:42;2.63;;;0.30;;
24901;SDS011;31328;51.402;0.016;2023-03-14T09:22:08;0.30;;;0.10;;
24901;SDS011;31328;51.402;0.016;2023-03-14T09:24:34;0.30;;;0.30;;
24901;SDS011;31328;51.402;0.016;2023-03-14T09:27:01;0.27;;;0.20;;
24901;SDS011;31328;51.402;0.016;2023-03-14T09:29:27;0.93;;;0.20;;
24901;SDS011;31328;51.402;0.016;2023-03-14T09:31:53;0.40;;;0.20;;
24901;SDS011;31328;51.402;0.016;2023-03-14T09:34:20;2.70;;;0.40;;
24901;SDS011;31328;51.402;0.016;2023-03-14T09:36:46;1.40;;;0.50;;
24901;SDS011;31328;51.402;0.016;2023-03-14T09:39:12;1.03;;;0.50;;
24901;SDS011;31328;51.402;0.016;2023-03-14T09:41:39;2.23;;;0.40;;
24901;SDS011;31328;51.402;0.016;2023-03-14T09:44:13;1.23;;;0.40;;
24901;SDS011;31328;51.402;0.016;2023-03-14T09:46:46;1.60;;;0.60;;
24901;SDS011;31328;51.402;0.016;2023-03-14T09:49:27;0.83;;;0.30;;
24901;SDS011;31328;51.402;0.016;2023-03-14T09:51:56;2.20;;;0.63;;
24901;SDS011;31328;51.402;0.016;2023-03-14T09:54:34;2.47;;;1.03;;
24901;SDS011;31328;51.402;0.016;2023-03-14T09:57:05;5.40;;;0.80;;
24901;SDS011;31328;51.402;0.016;2023-03-14T09:59:35;2.07;;;0.60;;
24901;SDS011;31328;51.402;0.016;2023-03-14T10:02:25;2.23;;;0.87;;
24901;SDS011;31328;51.402;0.016;2023-03-14T10:04:57;1.83;;;1.13;;
24901;SDS011;31328;51.402;0.016;2023-03-14T10:07:27;4.27;;;1.73;;
24901;SDS011;31328;51.402;0.016;2023-03-14T10:09:54;4.43;;;1.37;;
24901;SDS011;31328;51.402;0.016;2023-03-14T10:12:30;2.23;;;1.33;;
24901;SDS011;31328;51.402;0.016;2023-03-14T10:15:04;5.90;;;1.40;;
24901;SDS011;31328;51.402;0.016;2023-03-14T10:17:40;4.07;;;1.13;;
24901;SDS011;31328;51.402;0.016;2023-03-14T10:23:33;4.80;;;1.70;;
24901;SDS011;31328;51.402;0.016;2023-03-14T10:28:53;6.60;;;1.57;;
24901;SDS011;31328;51.402;0.016;2023-03-14T10:31:29;4.37;;;1.13;;
24901;SDS011;31328;51.402;0.016;2023-03-14T10:34:20;6.23;;;1.60;;
24901;SDS011;31328;51.402;0.016;2023-03-14T10:36:56;6.80;;;1.90;;
24901;SDS011;31328;51.402;0.016;2023-03-14T10:39:38;7.20;;;1.77;;
24901;SDS011;31328;51.402;0.016;2023-03-14T10:42:12;4.63;;;1.67;;
24901;SDS011;31328;51.402;0.016;2023-03-14T10:44:53;8.20;;;1.80;;
24901;SDS011;31328;51.402;0.016;2023-03-14T10:47:22;6.00;;;1.43;;
24901;SDS011;31328;51.402;0.016;2023-03-14T10:49:51;5.10;;;2.00;;
24901;SDS011;31328;51.402;0.016;2023-03-14T10:52:22;3.57;;;1.20;;
24901;SDS011;31328;51.402;0.016;2023-03-14T10:54:58;3.80;;;1.33;;
24901;SDS011;31328;51.402;0.016;2023-03-14T10:57:26;8.77;;;1.60;;
24901;SDS011;31328;51.402;0.016;2023-03-14T10:59:53;4.13;;;1.33;;
24901;SDS011;31328;51.402;0.016;2023-03-14T11:05:29;6.43;;;1.60;;
24901;SDS011;31328;51.402;0.016;2023-03-14T11:08:11;4.33;;;1.20;;
24901;SDS011;31328;51.402;0.016;2023-03-14T11:10:43;5.63;;;1.13;;
24901;SDS011;31328;51.402;0.016;2023-03-14T11:21:27;5.87;;;1.07;;
24901;SDS011;31328;51.402;0.016;2023-03-14T11:29:09;5.30;;;1.47;;
24901;SDS011;31328;51.402;0.016;2023-03-14T11:31:54;10.47;;;1.77;;
24901;SDS011;31328;51.402;0.016;2023-03-14T11:37:06;5.47;;;1.20;;
24901;SDS011;31328;51.402;0.016;2023-03-14T11:39:41;4.53;;;1.23;;
24901;SDS011;31328;51.402;0.016;2023-03-14T11:42:11;5.17;;;1.00;;
24901;SDS011;31328;51.402;0.016;2023-03-14T11:44:41;6.10;;;1.93;;
24901;SDS011;31328;51.402;0.016;2023-03-14T11:49:42;7.50;;;2.30;;
24901;SDS011;31328;51.402;0.016;2023-03-14T11:52:35;8.13;;;1.30;;
24901;SDS011;31328;51.402;0.016;2023-03-14T11:55:09;5.93;;;1.63;;
24901;SDS011;31328;51.402;0.016;2023-03-14T11:57:42;8.63;;;1.57;;
24901;SDS011;31328;51.402;0.016;2023-03-14T12:00:23;5.37;;;0.90;;
24901;SDS011;31328;51.402;0.016;2023-03-14T12:02:51;10.03;;;1.53;;
24901;SDS011;31328;51.402;0.016;2023-03-14T12:10:40;6.57;;;1.80;;
24901;SDS011;31328;51.402;0.016;2023-03-14T12:13:17;4.40;;;1.27;;
24901;SDS011;31328;51.402;0.016;2023-03-14T12:18:32;6.00;;;1.50;;
24901;SDS011;31328;51.402;0.016;2023-03-14T12:21:07;7.07;;;2.07;;
24901;SDS011;31328;51.402;0.016;2023-03-14T12:26:08;5.53;;;1.20;;
24901;SDS011;31328;51.402;0.016;2023-03-14T12:29:29;5.57;;;1.93;;
24901;SDS011;31328;51.402;0.016;2023-03-14T12:31:38;8.27;;;2.27;;
24901;SDS011;31328;51.402;0.016;2023-03-14T12:39:25;4.33;;;0.87;;
24901;SDS011;31328;51.402;0.016;2023-03-14T12:44:42;4.33;;;2.20;;
24901;SDS011;31328;51.402;0.016;2023-03-14T12:50:07;4.63;;;1.30;;
24901;SDS011;31328;51.402;0.016;2023-03-14T12:52:44;5.70;;;1.53;;
24901;SDS011;31328;51.402;0.016;2023-03-14T12:55:29;4.28;;;1.05;;
24901;SDS011;31328;51.402;0.016;2023-03-14T12:58:08;2.97;;;1.30;;
24901;SDS011;31328;51.402;0.016;2023-03-14T13:00:45;7.43;;;1.10;;
24901;SDS011;31328;51.402;0.016;2023-03-14T13:05:52;5.10;;;0.73;;
24901;SDS011;31328;51.402;0.016;2023-03-14T13:10:59;4.60;;;1.33;;
24901;SDS011;31328;51.402;0.016;2023-03-14T13:13:28;4.80;;;1.33;;
24901;SDS011;31328;51.402;0.016;2023-03-14T13:15:56;4.30;;;0.70;;
24901;SDS011;31328;51.402;0.016;2023-03-14T13:18:35;4.90;;;0.80;;
24901;SDS011;31328;51.402;0.016;2023-03-14T13:26:21;3.27;;;0.70;;
24901;SDS011;31328;51.402;0.016;2023-03-14T13:28:50;3.13;;;0.73;;
24901;SDS011;31328;51.402;0.016;2023-03-14T13:31:24;8.03;;;2.10;;
24901;SDS011;31328;51.402;0.016;2023-03-14T13:34:02;8.48;;;1.45;;
24901;SDS011;31328;51.402;0.016;2023-03-14T13:36:33;2.80;;;1.37;;
24901;SDS011;31328;51.402;0.016;2023-03-14T13:39:01;4.43;;;0.70;;
24901;SDS011;31328;51.402;0.016;2023-03-14T13:41:30;5.00;;;1.20;;
24901;SDS011;31328;51.402;0.016;2023-03-14T13:44:22;3.07;;;0.83;;
24901;SDS011;31328;51.402;0.016;2023-03-14T13:46:48;3.47;;;0.70;;
24901;SDS011;31328;51.402;0.016;2023-03-14T13:49:18;1.93;;;0.70;;
24901;SDS011;31328;51.402;0.016;2023-03-14T13:51:48;3.70;;;0.70;;
24901;SDS011;31328;51.402;0.016;2023-03-14T13:54:15;3.53;;;0.90;;
24901;SDS011;31328;51.402;0.016;2023-03-14T13:56:44;2.67;;;0.80;;
24901;SDS011;31328;51.402;0.016;2023-03-14T14:01:49;4.80;;;1.67;;
24901;SDS011;31328;51.402;0.016;2023-03-14T14:04:17;3.63;;;1.17;;
24901;SDS011;31328;51.402;0.016;2023-03-14T14:06:48;3.67;;;0.83;;
24901;SDS011;31328;51.402;0.016;2023-03-14T14:09:20;2.83;;;0.80;;
24901;SDS011;31328;51.402;0.016;2023-03-14T14:11:58;3.40;;;0.67;;
24901;SDS011;31328;51.402;0.016;2023-03-14T14:14:35;2.45;;;0.98;;
24901;SDS011;31328;51.402;0.016;2023-03-14T14:17:07;4.77;;;1.17;;
24901;SDS011;31328;51.402;0.016;2023-03-14T14:19:37;2.40;;;0.70;;
24901;SDS011;31328;51.402;0.016;2023-03-14T14:22:05;2.10;;;0.60;;
24901;SDS011;31328;51.402;0.016;2023-03-14T14:24:33;3.10;;;0.87;;
24901;SDS011;31328;51.402;0.016;2023-03-14T14:27:14;2.50;;;0.77;;
24901;SDS011;31328;51.402;0.016;2023-03-14T14:29:43;1.50;;;0.43;;
24901;SDS011;31328;51.402;0.016;2023-03-14T14:32:21;5.77;;;0.90;;
24901;SDS011;31328;51.402;0.016;2023-03-14T14:37:26;2.03;;;0.50;;
24901;SDS011;31328;51.402;0.016;2023-03-14T14:39:56;3.03;;;0.50;;
24901;SDS011;31328;51.402;0.016;2023-03-14T14:42:29;3.07;;;0.70;;
24901;SDS011;31328;51.402;0.016;2023-03-14T14:44:57;2.33;;;0.63;;
24901;SDS011;31328;51.402;0.016;2023-03-14T14:47:25;2.33;;;0.60;;
24901;SDS011;31328;51.402;0.016;2023-03-14T14:49:54;2.90;;;0.77;;
24901;SDS011;31328;51.402;0.016;2023-03-14T14:52:31;3.17;;;0.60;;
24901;SDS011;31328;51.402;0.016;2023-03-14T14:55:11;2.47;;;0.90;;
24901;SDS011;31328;51.402;0.016;2023-03-14T14:57:54;6.03;;;1.53;;
24901;SDS011;31328;51.402;0.016;2023-03-14T15:00:23;3.37;;;0.97;;
24901;SDS011;31328;51.402;0.016;2023-03-14T15:02:52;2.73;;;0.90;;
24901;SDS011;31328;51.402;0.016;2023-03-14T15:05:26;2.10;;;0.95;;
24901;SDS011;31328;51.402;0.016;2023-03-14T15:07:56;1.10;;;0.50;;
24901;SDS011;31328;51.402;0.016;2023-03-14T15:10:23;2.20;;;0.90;;
24901;SDS011;31328;51.402;0.016;2023-03-14T15:12:51;2.80;;;0.77;;
24901;SDS011;31328;51.402;0.016;2023-03-14T15:15:18;3.30;;;0.83;;
24901;SDS011;31328;51.402;0.016;2023-03-14T15:17:45;1.67;;;0.67;;
24901;SDS011;31328;51.402;0.016;2023-03-14T15:20:12;1.53;;;0.83;;
24901;SDS011;31328;51.402;0.016;2023-03-14T15:22:41;3.03;;;0.50;;
24901;SDS011;31328;51.402;0.016;2023-03-14T15:25:08;2.30;;;0.40;;
24901;SDS011;31328;51.402;0.016;2023-03-14T15:27:35;5.00;;;1.10;;
24901;SDS011;31328;51.402;0.016;2023-03-14T15:30:12;5.50;;;1.27;;
24901;SDS011;31328;51.402;0.016;2023-03-14T15:32:40;2.93;;;0.50;;
24901;SDS011;31328;51.402;0.016;2023-03-14T15:35:06;3.80;;;0.90;;
24901;SDS011;31328;51.402;0.016;2023-03-14T15:37:33;2.00;;;0.90;;
24901;SDS011;31328;51.402;0.016;2023-03-14T15:40:01;2.90;;;0.70;;
24901;SDS011;31328;51.402;0.016;2023-03-14T15:45:03;2.07;;;0.60;;
24901;SDS011;31328;51.402;0.016;2023-03-14T15:47:30;3.17;;;0.67;;
24901;SDS011;31328;51.402;0.016;2023-03-14T15:49:58;2.60;;;1.10;;
24901;SDS011;31328;51.402;0.016;2023-03-14T15:52:24;2.20;;;0.80;;
24901;SDS011;31328;51.402;0.016;2023-03-14T15:54:50;2.23;;;0.50;;
24901;SDS011;31328;51.402;0.016;2023-03-14T15:57:17;1.93;;;0.53;;
24901;SDS011;31328;51.402;0.016;2023-03-14T15:59:43;3.70;;;0.73;;
24901;SDS011;31328;51.402;0.016;2023-03-14T16:02:10;1.47;;;0.50;;
24901;SDS011;31328;51.402;0.016;2023-03-14T16:04:36;2.67;;;0.50;;
24901;SDS011;31328;51.402;0.016;2023-03-14T16:07:03;3.63;;;0.53;;
24901;SDS011;31328;51.402;0.016;2023-03-14T16:09:29;3.70;;;0.93;;
24901;SDS011;31328;51.402;0.016;2023-03-14T16:11:56;2.87;;;0.63;;
24901;SDS011;31328;51.402;0.016;2023-03-14T16:14:23;3.43;;;0.53;;
24901;SDS011;31328;51.402;0.016;2023-03-14T16:16:51;4.33;;;0.70;;
24901;SDS011;31328;51.402;0.016;2023-03-14T16:19:17;3.50;;;0.50;;
24901;SDS011;31328;51.402;0.016;2023-03-14T16:21:44;2.90;;;0.60;;
24901;SDS011;31328;51.402;0.016;2023-03-14T16:24:10;3.03;;;0.70;;
24901;SDS011;31328;51.402;0.016;2023-03-14T16:26:37;2.07;;;0.50;;
24901;SDS011;31328;51.402;0.016;2023-03-14T16:29:03;2.07;;;0.47;;
24901;SDS011;31328;51.402;0.016;2023-03-14T16:31:30;2.97;;;0.97;;
24901;SDS011;31328;51.402;0.016;2023-03-14T16:33:59;3.10;;;0.40;;
24901;SDS011;31328;51.402;0.016;2023-03-14T16:36:28;3.43;;;0.70;;